Terminal Aerodrome Forecast
Issued by NWS

Home | Current Version | Previous Version | Text Only | Print | Product List | Glossary On
Versions: 1 2 3 4 5 6 7 8 9 10 11 12 13 14 15 16 17 18
000
FTUS43 KMQT 272135 AAB
TAFCMX
TAF AMD
KCMX 272135Z 2722/2818 31012KT P6SM OVC012
      TEMPO 2722/2723 4SM -SHRA BR BKN008
     FM272300 34014G21KT 6SM -SHRA OVC015
     FM280300 03015G22KT 6SM -SHRA OVC020
     FM281000 05011KT P6SM VCSH BKN020
     FM281600 05011G19KT P6SM BKN025=

USA.gov is the U.S. government's official web portal to all federal, state and local government web resources and services.